createdAt,value
2018-04-16T00:00:16.455Z,87.3
2018-04-16T00:01:16.503Z,87.5
2018-04-16T00:02:16.773Z,87.7
2018-04-16T00:03:17.027Z,87.8
2018-04-16T00:04:16.294Z,87.4
2018-04-16T00:05:16.574Z,87.4
2018-04-16T00:06:16.836Z,87.5
2018-04-16T00:07:17.105Z,86.5
2018-04-16T00:08:16.371Z,86.8
2018-04-16T00:09:16.636Z,86.8
2018-04-16T00:10:16.903Z,86.7
2018-04-16T00:11:16.946Z,86.5
2018-04-16T00:12:17.206Z,87.2
2018-04-16T00:13:16.475Z,87.2
2018-04-16T00:14:16.744Z,86.8
2018-04-16T00:15:17.017Z,87.5
2018-04-16T00:16:16.280Z,87.8
2018-04-16T00:17:16.538Z,88.0
2018-04-16T00:18:16.793Z,87.8
2018-04-16T00:19:17.062Z,87.7
2018-04-16T00:20:16.334Z,87.8
2018-04-16T00:21:16.361Z,87.5
2018-04-16T00:22:16.626Z,87.3
2018-04-16T00:23:16.891Z,87.3
2018-04-16T00:24:17.154Z,87.3
2018-04-16T00:25:16.426Z,87.0
2018-04-16T00:26:16.695Z,87.1
2018-04-16T00:27:16.955Z,86.7
2018-04-16T00:28:16.266Z,86.7
2018-04-16T00:29:16.533Z,87.0
2018-04-16T00:30:16.905Z,87.0
2018-04-16T00:31:16.851Z,87.2
2018-04-16T00:32:17.113Z,87.5
2018-04-16T00:33:16.376Z,87.5
2018-04-16T00:34:16.646Z,87.4
2018-04-16T00:35:16.904Z,87.5
2018-04-16T00:36:17.161Z,87.5
2018-04-16T00:37:16.416Z,87.2
2018-04-16T00:38:16.694Z,86.9
2018-04-16T00:39:16.976Z,86.8
2018-04-16T00:40:17.251Z,86.3
2018-04-16T00:41:16.300Z,86.5
2018-04-16T00:42:16.562Z,86.8
2018-04-16T00:43:16.826Z,86.8
2018-04-16T00:44:17.082Z,86.8
2018-04-16T00:45:16.350Z,86.8
2018-04-16T00:46:16.618Z,87.0
2018-04-16T00:47:16.887Z,87.2
2018-04-16T00:48:17.459Z,87.2
2018-04-16T00:49:16.723Z,87.0
2018-04-16T00:50:16.994Z,87.2
2018-04-16T00:51:17.035Z,87.3
2018-04-16T00:52:16.316Z,87.4
2018-04-16T00:53:16.577Z,87.2
2018-04-16T00:54:16.842Z,87.2
2018-04-16T00:55:17.099Z,87.2
2018-04-16T00:56:16.359Z,87.1
2018-04-16T00:57:16.627Z,87.0
2018-04-16T00:58:16.886Z,87.4
2018-04-16T00:59:17.162Z,87.5
2018-04-16T01:00:16.440Z,87.5
2018-04-16T01:01:16.490Z,87.6
2018-04-16T01:02:16.757Z,87.7
2018-04-16T01:03:17.021Z,87.8
2018-04-16T01:04:16.277Z,87.9
2018-04-16T01:05:16.547Z,88.0
2018-04-16T01:06:16.808Z,87.8
2018-04-16T01:07:17.069Z,87.8
2018-04-16T01:08:16.336Z,87.6
2018-04-16T01:09:16.606Z,87.2
2018-04-16T01:10:16.869Z,87.2
2018-04-16T01:11:16.927Z,87.3
2018-04-16T01:12:17.193Z,87.4
2018-04-16T01:13:16.462Z,87.6
2018-04-16T01:14:16.724Z,87.5
2018-04-16T01:15:17.000Z,87.3
2018-04-16T01:16:16.271Z,87.2
2018-04-16T01:17:16.541Z,87.2
2018-04-16T01:18:16.804Z,87.2
2018-04-16T01:19:17.336Z,87.2
2018-04-16T01:20:16.608Z,87.0
2018-04-16T01:21:16.650Z,87.0
2018-04-16T01:22:16.927Z,87.2
2018-04-16T01:23:17.189Z,87.4
2018-04-16T01:24:16.445Z,87.5
2018-04-16T01:25:16.710Z,87.6
2018-04-16T01:26:16.969Z,87.5
2018-04-16T01:27:17.241Z,87.3
2018-04-16T01:28:16.499Z,87.2
2018-04-16T01:29:16.759Z,87.2
2018-04-16T01:30:17.032Z,87.3
2018-04-16T01:31:17.071Z,87.5
2018-04-16T01:32:16.330Z,87.5
2018-04-16T01:33:16.587Z,87.6
2018-04-16T01:34:16.848Z,87.5
2018-04-16T01:35:17.107Z,87.6
2018-04-16T01:36:16.367Z,87.5
2018-04-16T01:37:16.633Z,87.3
2018-04-16T01:38:16.890Z,87.3
2018-04-16T01:39:17.188Z,87.5
2018-04-16T01:40:16.460Z,87.3
2018-04-16T01:41:16.519Z,87.1
2018-04-16T01:42:16.784Z,87.0
2018-04-16T01:43:17.053Z,87.0
2018-04-16T01:44:16.338Z,87.0
2018-04-16T01:45:16.881Z,86.9
2018-04-16T01:46:17.141Z,87.0
2018-04-16T01:47:16.399Z,87.0
2018-04-16T01:48:16.664Z,86.5
2018-04-16T01:49:16.927Z,86.3
2018-04-16T01:50:17.506Z,86.5
2018-04-16T01:51:17.227Z,86.8
2018-04-16T01:52:16.496Z,86.9
2018-04-16T01:53:16.758Z,86.9
2018-04-16T01:54:17.025Z,87.1
2018-04-16T01:55:16.281Z,87.1
2018-04-16T01:56:16.549Z,86.5
2018-04-16T01:57:16.807Z,86.5
2018-04-16T01:58:17.076Z,86.5
2018-04-16T01:59:16.337Z,86.5
2018-04-16T02:00:16.625Z,86.6
2018-04-16T02:01:16.660Z,86.5
2018-04-16T02:02:16.923Z,86.7
2018-04-16T02:03:17.185Z,86.7
2018-04-16T02:04:16.442Z,86.7
2018-04-16T02:05:16.720Z,86.8
2018-04-16T02:06:16.984Z,86.8
2018-04-16T02:07:17.250Z,87.0
2018-04-16T02:08:16.510Z,87.2
2018-04-16T02:09:16.772Z,87.2
2018-04-16T02:10:17.048Z,87.3
2018-04-16T02:11:17.083Z,87.3
2018-04-16T02:12:16.351Z,87.2
2018-04-16T02:13:16.620Z,87.2
2018-04-16T02:14:16.884Z,87.5
2018-04-16T02:15:17.152Z,87.5
2018-04-16T02:16:16.420Z,87.6
2018-04-16T02:17:16.686Z,87.5
2018-04-16T02:18:16.950Z,87.5
2018-04-16T02:19:17.214Z,87.0
2018-04-16T02:20:16.491Z,86.7
2018-04-16T02:21:16.505Z,86.6
2018-04-16T02:22:16.771Z,86.6
2018-04-16T02:23:17.036Z,86.5
2018-04-16T02:24:16.293Z,86.3
2018-04-16T02:25:16.552Z,85.8
2018-04-16T02:26:16.806Z,86.0
2018-04-16T02:27:17.060Z,86.0
2018-04-16T02:28:16.316Z,85.7
2018-04-16T02:29:16.575Z,85.8
2018-04-16T02:30:16.842Z,86.0
2018-04-16T02:31:16.900Z,86.1
2018-04-16T02:32:17.165Z,86.0
2018-04-16T02:33:16.432Z,86.0
2018-04-16T02:34:16.714Z,86.0
2018-04-16T02:35:16.981Z,86.0
2018-04-16T02:36:17.303Z,86.0
2018-04-16T02:37:16.563Z,86.0
2018-04-16T02:38:16.839Z,85.5
2018-04-16T02:39:17.104Z,86.0
2018-04-16T02:40:16.372Z,85.5
2018-04-16T02:41:16.426Z,85.4
2018-04-16T02:42:16.686Z,85.2
2018-04-16T02:43:16.961Z,85.0
2018-04-16T02:44:17.233Z,85.0
2018-04-16T02:45:16.493Z,85.0
2018-04-16T02:46:16.787Z,85.0
2018-04-16T02:47:17.075Z,84.9
2018-04-16T02:48:16.345Z,84.5
2018-04-16T02:49:16.623Z,84.5
2018-04-16T02:50:16.882Z,84.7
2018-04-16T02:51:16.938Z,84.7
2018-04-16T02:52:17.204Z,84.8
2018-04-16T02:53:16.470Z,84.9
2018-04-16T02:54:16.746Z,84.9
2018-04-16T02:55:17.025Z,85.0
2018-04-16T02:56:16.307Z,84.9
2018-04-16T02:57:16.575Z,84.9
2018-04-16T02:58:16.840Z,84.8
2018-04-16T02:59:17.114Z,84.9
2018-04-16T03:00:16.394Z,85.0
2018-04-16T03:01:16.436Z,85.1
2018-04-16T03:02:16.702Z,85.1
2018-04-16T03:03:16.976Z,85.5
2018-04-16T03:04:17.235Z,85.8
2018-04-16T03:05:16.504Z,85.7
2018-04-16T03:06:16.769Z,85.8
2018-04-16T03:07:17.030Z,85.8
2018-04-16T03:08:16.304Z,85.8
2018-04-16T03:09:16.575Z,86.0
2018-04-16T03:10:16.874Z,86.4
2018-04-16T03:11:16.885Z,86.4
2018-04-16T03:12:17.145Z,86.6
2018-04-16T03:13:16.397Z,87.0
2018-04-16T03:14:16.651Z,86.9
2018-04-16T03:15:16.935Z,87.2
2018-04-16T03:16:17.228Z,87.3
2018-04-16T03:17:16.500Z,87.3
2018-04-16T03:18:16.782Z,87.5
2018-04-16T03:19:17.042Z,87.5
2018-04-16T03:20:16.318Z,87.9
2018-04-16T03:21:16.349Z,87.7
2018-04-16T03:22:16.617Z,87.8
2018-04-16T03:23:16.887Z,87.8
2018-04-16T03:24:17.144Z,88.3
2018-04-16T03:25:16.409Z,88.5
2018-04-16T03:26:16.675Z,88.5
2018-04-16T03:27:16.949Z,88.5
2018-04-16T03:28:17.209Z,89.0
2018-04-16T03:29:16.481Z,89.0
2018-04-16T03:30:16.750Z,89.1
2018-04-16T03:31:16.821Z,89.2
2018-04-16T03:32:17.088Z,89.3
2018-04-16T03:33:16.351Z,89.3
2018-04-16T03:34:16.616Z,89.3
2018-04-16T03:35:16.885Z,89.2
2018-04-16T03:36:17.166Z,89.2
2018-04-16T03:37:16.427Z,89.2
2018-04-16T03:38:16.693Z,89.1
2018-04-16T03:39:16.952Z,89.0
2018-04-16T03:40:17.221Z,88.9
2018-04-16T03:41:16.250Z,89.0
2018-04-16T03:42:16.703Z,89.0
2018-04-16T03:43:16.968Z,89.0
2018-04-16T03:44:17.423Z,89.3
2018-04-16T03:45:16.690Z,89.2
2018-04-16T03:46:16.956Z,89.2
2018-04-16T03:47:17.221Z,89.2
2018-04-16T03:48:16.483Z,89.3
2018-04-16T03:49:16.747Z,89.0
2018-04-16T03:50:17.020Z,88.8
2018-04-16T03:51:17.049Z,88.8
2018-04-16T03:52:16.313Z,88.5
2018-04-16T03:53:16.583Z,88.5
2018-04-16T03:54:16.845Z,88.7
2018-04-16T03:55:17.146Z,89.0
2018-04-16T03:56:16.456Z,89.0
2018-04-16T03:57:16.724Z,89.2
2018-04-16T03:58:16.999Z,89.1
2018-04-16T03:59:16.264Z,89.2
2018-04-16T04:00:16.527Z,89.2
2018-04-16T04:01:16.650Z,89.3
2018-04-16T04:02:16.926Z,89.2
2018-04-16T04:03:17.193Z,89.4
2018-04-16T04:04:16.450Z,89.4
2018-04-16T04:05:16.712Z,89.7
2018-04-16T04:06:16.967Z,89.5
2018-04-16T04:07:17.229Z,89.5
2018-04-16T04:08:16.487Z,89.5
2018-04-16T04:09:16.742Z,89.5
2018-04-16T04:10:17.015Z,89.5
2018-04-16T04:11:17.055Z,89.5
2018-04-16T04:12:16.316Z,89.8
2018-04-16T04:13:16.580Z,89.8
2018-04-16T04:14:16.861Z,90.0
2018-04-16T04:15:17.128Z,89.8
2018-04-16T04:16:16.387Z,89.8
2018-04-16T04:17:16.649Z,89.8
2018-04-16T04:18:16.917Z,89.8
2018-04-16T04:19:17.182Z,89.9
2018-04-16T04:20:16.450Z,90.0
2018-04-16T04:21:16.491Z,90.1
2018-04-16T04:22:16.756Z,90.2
2018-04-16T04:23:17.014Z,90.2
2018-04-16T04:24:16.276Z,90.1
2018-04-16T04:25:16.565Z,90.0
2018-04-16T04:26:16.858Z,90.1
2018-04-16T04:27:17.119Z,90.0
2018-04-16T04:28:16.380Z,89.9
2018-04-16T04:29:16.648Z,89.2
2018-04-16T04:30:16.912Z,89.1
2018-04-16T04:31:16.966Z,89.0
2018-04-16T04:32:17.230Z,88.8
2018-04-16T04:33:16.491Z,88.8
2018-04-16T04:34:16.753Z,88.8
2018-04-16T04:35:17.015Z,88.7
2018-04-16T04:36:16.277Z,88.1
2018-04-16T04:37:16.545Z,88.4
2018-04-16T04:38:16.805Z,88.5
2018-04-16T04:39:17.073Z,88.5
2018-04-16T04:40:16.329Z,88.0
2018-04-16T04:41:16.410Z,88.0
2018-04-16T04:42:16.684Z,88.0
2018-04-16T04:43:16.938Z,88.0
2018-04-16T04:44:17.197Z,87.9
2018-04-16T04:45:16.568Z,87.8
2018-04-16T04:46:16.849Z,87.8
2018-04-16T04:47:17.106Z,87.9
2018-04-16T04:48:16.372Z,87.7
2018-04-16T04:49:16.630Z,87.8
2018-04-16T04:50:16.891Z,87.5
2018-04-16T04:51:16.941Z,87.4
2018-04-16T04:52:17.203Z,87.5
2018-04-16T04:53:16.460Z,87.6
2018-04-16T04:54:16.724Z,87.8
2018-04-16T04:55:16.984Z,87.8
2018-04-16T04:56:17.247Z,87.8
2018-04-16T04:57:16.507Z,87.5
2018-04-16T04:58:16.771Z,87.5
2018-04-16T04:59:17.032Z,87.7
2018-04-16T05:00:16.306Z,87.7
2018-04-16T05:01:16.341Z,87.8
2018-04-16T05:02:16.608Z,87.8
2018-04-16T05:03:16.868Z,87.8
2018-04-16T05:04:17.129Z,87.9
2018-04-16T05:05:16.400Z,88.0
2018-04-16T05:06:16.725Z,88.0
2018-04-16T05:07:17.049Z,88.0
2018-04-16T05:08:16.313Z,88.0
2018-04-16T05:09:16.589Z,88.0
2018-04-16T05:10:16.868Z,88.0
2018-04-16T05:11:16.901Z,88.0
2018-04-16T05:12:17.166Z,88.0
2018-04-16T05:13:16.424Z,88.0
2018-04-16T05:14:16.687Z,87.9
2018-04-16T05:15:16.953Z,87.9
2018-04-16T05:16:17.212Z,87.9
2018-04-16T05:17:16.471Z,88.0
2018-04-16T05:18:16.738Z,88.0
2018-04-16T05:19:17.001Z,88.0
2018-04-16T05:20:16.268Z,88.2
2018-04-16T05:21:16.315Z,88.2
2018-04-16T05:22:16.575Z,88.2
2018-04-16T05:23:16.829Z,88.7
2018-04-16T05:24:17.083Z,88.7
2018-04-16T05:25:16.342Z,88.8
2018-04-16T05:26:16.604Z,88.8
2018-04-16T05:27:16.866Z,88.8
2018-04-16T05:28:17.134Z,88.7
2018-04-16T05:29:16.404Z,88.6
2018-04-16T05:30:16.691Z,88.6
2018-04-16T05:31:16.712Z,88.5
2018-04-16T05:32:16.983Z,88.6
2018-04-16T05:33:17.240Z,88.7
2018-04-16T05:34:16.502Z,88.8
2018-04-16T05:35:16.772Z,88.8
2018-04-16T05:36:17.048Z,88.7
2018-04-16T05:37:16.315Z,88.7
2018-04-16T05:38:16.592Z,88.8
2018-04-16T05:39:16.853Z,88.8
2018-04-16T05:40:17.126Z,88.8
2018-04-16T05:41:17.170Z,88.8
2018-04-16T05:42:16.429Z,88.7
2018-04-16T05:43:16.698Z,88.7
2018-04-16T05:44:16.962Z,88.7
2018-04-16T05:45:17.227Z,88.3
2018-04-16T05:46:16.493Z,88.5
2018-04-16T05:47:16.757Z,88.5
2018-04-16T05:48:17.017Z,88.5
2018-04-16T05:49:16.353Z,88.5
2018-04-16T05:50:16.635Z,88.5
2018-04-16T05:51:16.651Z,88.5
2018-04-16T05:52:16.910Z,88.4
2018-04-16T05:53:17.170Z,88.4
2018-04-16T05:54:16.433Z,88.5
2018-04-16T05:55:16.690Z,88.5
2018-04-16T05:56:16.953Z,88.4
2018-04-16T05:57:17.469Z,88.3
2018-04-16T05:58:16.733Z,88.2
2018-04-16T05:59:17.006Z,88.4
2018-04-16T06:00:16.287Z,88.5
2018-04-16T06:01:16.314Z,88.5
2018-04-16T06:02:16.574Z,88.4
2018-04-16T06:03:16.830Z,88.3
2018-04-16T06:04:17.091Z,88.3
2018-04-16T06:05:16.350Z,88.2
2018-04-16T06:06:16.606Z,87.4
2018-04-16T06:07:16.867Z,87.5
2018-04-16T06:08:17.132Z,87.5
2018-04-16T06:09:16.399Z,87.5
2018-04-16T06:10:16.666Z,87.2
2018-04-16T06:11:16.716Z,87.2
2018-04-16T06:12:16.983Z,87.0
2018-04-16T06:13:17.250Z,86.9
2018-04-16T06:14:16.527Z,86.8
2018-04-16T06:15:16.791Z,86.2
2018-04-16T06:16:17.059Z,86.5
2018-04-16T06:17:16.316Z,86.5
2018-04-16T06:18:16.592Z,86.5
2018-04-16T06:19:16.851Z,86.5
2018-04-16T06:20:17.129Z,86.4
2018-04-16T06:21:17.171Z,86.2
2018-04-16T06:22:16.436Z,86.3
2018-04-16T06:23:16.703Z,86.3
2018-04-16T06:24:16.969Z,86.1
2018-04-16T06:25:17.239Z,86.0
2018-04-16T06:26:16.505Z,85.5
2018-04-16T06:27:16.887Z,85.6
2018-04-16T06:28:17.155Z,85.5
2018-04-16T06:29:16.419Z,85.7
2018-04-16T06:30:16.684Z,85.8
2018-04-16T06:31:16.750Z,85.8
2018-04-16T06:32:17.012Z,85.3
2018-04-16T06:33:16.274Z,85.5
2018-04-16T06:34:16.532Z,85.5
2018-04-16T06:35:16.805Z,85.4
2018-04-16T06:36:17.062Z,85.3
2018-04-16T06:37:16.324Z,84.7
2018-04-16T06:38:16.602Z,84.9
2018-04-16T06:39:16.863Z,84.0
2018-04-16T06:40:17.134Z,83.5
2018-04-16T06:41:17.162Z,82.7
2018-04-16T06:42:16.437Z,81.2
2018-04-16T06:43:16.699Z,80.3
2018-04-16T06:44:16.953Z,79.5
2018-04-16T06:45:17.215Z,79.2
2018-04-16T06:46:16.477Z,78.8
2018-04-16T06:47:16.745Z,78.8
2018-04-16T06:48:17.015Z,78.2
2018-04-16T06:49:16.272Z,78.0
2018-04-16T06:50:16.550Z,77.6
2018-04-16T06:51:16.588Z,77.7
2018-04-16T06:52:16.852Z,77.5
2018-04-16T06:53:17.140Z,76.8
2018-04-16T06:54:16.408Z,76.7
2018-04-16T06:55:16.670Z,75.7
2018-04-16T06:56:16.933Z,75.7
2018-04-16T06:57:17.204Z,75.7
2018-04-16T06:58:16.470Z,75.2
2018-04-16T06:59:16.769Z,75.2
2018-04-16T07:00:17.062Z,74.5
2018-04-16T07:01:17.118Z,73.9
2018-04-16T07:02:16.415Z,73.8
2018-04-16T07:03:16.696Z,73.3
2018-04-16T07:04:16.978Z,73.2
2018-04-16T07:05:17.295Z,72.7
2018-04-16T07:06:16.565Z,72.2
2018-04-16T07:07:16.836Z,71.8
2018-04-16T07:08:17.093Z,71.8
2018-04-16T07:09:16.365Z,71.3
2018-04-16T07:10:16.634Z,71.0
2018-04-16T07:11:16.683Z,70.5
2018-04-16T07:12:16.958Z,70.8
2018-04-16T07:13:17.234Z,70.7
2018-04-16T07:14:16.497Z,70.2
2018-04-16T07:15:16.756Z,70.1
2018-04-16T07:16:17.053Z,70.2
2018-04-16T07:17:16.340Z,70.2
2018-04-16T07:18:16.607Z,69.5
2018-04-16T07:19:16.863Z,69.4
2018-04-16T07:20:17.140Z,69.4
2018-04-16T07:21:17.182Z,69.5
2018-04-16T07:22:16.447Z,69.5
2018-04-16T07:23:16.729Z,69.5
2018-04-16T07:24:17.116Z,68.9
2018-04-16T07:25:16.412Z,69.1
2018-04-16T07:26:16.680Z,68.5
2018-04-16T07:27:17.021Z,68.5
2018-04-16T07:28:16.288Z,68.5
2018-04-16T07:29:16.548Z,68.7
2018-04-16T07:30:16.814Z,68.5
2018-04-16T07:31:16.859Z,69.0
2018-04-16T07:32:17.113Z,68.5
2018-04-16T07:33:16.377Z,69.0
2018-04-16T07:34:16.639Z,69.2
2018-04-16T07:35:16.896Z,69.0
2018-04-16T07:36:17.151Z,68.9
2018-04-16T07:37:16.409Z,69.2
2018-04-16T07:38:16.663Z,69.2
2018-04-16T07:39:16.924Z,69.4
2018-04-16T07:40:17.207Z,69.1
2018-04-16T07:41:17.231Z,69.2
2018-04-16T07:42:16.502Z,69.2
2018-04-16T07:43:16.766Z,69.2
2018-04-16T07:44:17.088Z,69.0
2018-04-16T07:45:16.363Z,69.1
2018-04-16T07:46:16.625Z,69.0
2018-04-16T07:47:16.890Z,68.9
2018-04-16T07:48:17.154Z,69.0
2018-04-16T07:49:16.421Z,69.5
2018-04-16T07:50:16.686Z,70.0
2018-04-16T07:51:16.737Z,69.7
2018-04-16T07:52:16.995Z,69.5
2018-04-16T07:53:16.249Z,69.7
2018-04-16T07:54:16.510Z,69.6
2018-04-16T07:55:16.770Z,69.2
2018-04-16T07:56:17.024Z,69.2
2018-04-16T07:57:16.290Z,68.8
2018-04-16T07:58:16.548Z,69.0
2018-04-16T07:59:16.815Z,68.4
2018-04-16T08:00:17.088Z,68.2
2018-04-16T08:01:17.125Z,68.2
2018-04-16T08:02:16.388Z,68.0
2018-04-16T08:03:16.651Z,67.8
2018-04-16T08:04:16.913Z,67.8
2018-04-16T08:05:17.172Z,67.5
2018-04-16T08:06:16.435Z,67.5
2018-04-16T08:07:16.695Z,67.3
2018-04-16T08:08:16.959Z,67.0
2018-04-16T08:09:17.222Z,67.4
2018-04-16T08:10:16.494Z,67.6
2018-04-16T08:11:16.525Z,67.5
2018-04-16T08:12:16.783Z,67.0
2018-04-16T08:13:17.040Z,67.1
2018-04-16T08:14:16.303Z,66.7
2018-04-16T08:15:16.572Z,66.3
2018-04-16T08:16:16.826Z,65.5
2018-04-16T08:17:17.094Z,65.2
2018-04-16T08:18:16.350Z,64.8
2018-04-16T08:19:16.682Z,65.1
2018-04-16T08:20:16.951Z,64.7
2018-04-16T08:21:16.991Z,64.5
2018-04-16T08:22:16.318Z,65.0
2018-04-16T08:23:16.594Z,64.0
2018-04-16T08:24:16.861Z,63.9
2018-04-16T08:25:17.130Z,64.0
2018-04-16T08:26:16.395Z,63.5
2018-04-16T08:27:16.648Z,63.6
2018-04-16T08:28:16.909Z,63.5
2018-04-16T08:29:17.173Z,63.7
2018-04-16T08:30:16.469Z,63.6
2018-04-16T08:31:16.489Z,63.6
2018-04-16T08:32:16.749Z,63.6
2018-04-16T08:33:17.099Z,63.5
2018-04-16T08:34:16.375Z,63.6
2018-04-16T08:35:16.636Z,63.7
2018-04-16T08:36:16.911Z,63.5
2018-04-16T08:37:17.188Z,63.3
2018-04-16T08:38:16.449Z,63.6
2018-04-16T08:39:16.714Z,63.6
2018-04-16T08:40:16.988Z,64.0
2018-04-16T08:41:17.120Z,64.3
2018-04-16T08:42:16.440Z,64.5
2018-04-16T08:43:16.724Z,64.3
2018-04-16T08:44:17.005Z,64.3
2018-04-16T08:45:16.265Z,64.3
2018-04-16T08:46:16.539Z,63.5
2018-04-16T08:47:16.792Z,63.6
2018-04-16T08:48:17.058Z,63.2
2018-04-16T08:49:16.310Z,63.0
2018-04-16T08:50:16.581Z,62.9
2018-04-16T08:51:16.612Z,62.9
2018-04-16T08:52:16.876Z,63.4
2018-04-16T08:53:17.164Z,62.9
2018-04-16T08:54:16.421Z,62.9
2018-04-16T08:55:16.683Z,62.0
2018-04-16T08:56:16.950Z,62.0
2018-04-16T08:57:17.214Z,61.6
2018-04-16T08:58:16.468Z,61.5
2018-04-16T08:59:16.735Z,61.4
2018-04-16T09:00:17.006Z,60.6
2018-04-16T09:01:17.054Z,60.6
2018-04-16T09:02:16.320Z,60.2
2018-04-16T09:03:16.601Z,59.8
2018-04-16T09:04:16.860Z,59.5
2018-04-16T09:05:17.129Z,58.8
2018-04-16T09:06:16.389Z,58.5
2018-04-16T09:07:16.652Z,58.4
2018-04-16T09:08:16.915Z,58.5
2018-04-16T09:09:17.175Z,58.1
2018-04-16T09:10:16.448Z,58.1
2018-04-16T09:11:16.489Z,57.5
2018-04-16T09:12:16.747Z,57.6
2018-04-16T09:13:17.009Z,57.2
2018-04-16T09:14:16.274Z,58.6
2018-04-16T09:15:16.542Z,58.5
2018-04-16T09:16:16.801Z,58.0
2018-04-16T09:17:17.088Z,57.6
2018-04-16T09:18:16.346Z,57.2
2018-04-16T09:19:16.641Z,57.6
2018-04-16T09:20:16.920Z,58.4
2018-04-16T09:21:16.966Z,58.4
2018-04-16T09:22:17.227Z,58.6
2018-04-16T09:23:16.481Z,58.5
2018-04-16T09:24:16.747Z,58.8
2018-04-16T09:25:17.006Z,58.1
2018-04-16T09:26:16.267Z,58.2
2018-04-16T09:27:16.526Z,57.0
2018-04-16T09:28:16.794Z,56.4
2018-04-16T09:29:17.060Z,56.5
2018-04-16T09:30:16.336Z,55.8
2018-04-16T09:31:16.373Z,56.2
2018-04-16T09:32:16.640Z,56.3
2018-04-16T09:33:16.908Z,56.3
2018-04-16T09:34:17.170Z,57.0
2018-04-16T09:35:16.427Z,58.0
2018-04-16T09:36:16.688Z,57.2
2018-04-16T09:37:16.952Z,57.6
2018-04-16T09:38:17.224Z,57.2
2018-04-16T09:39:16.493Z,56.9
2018-04-16T09:40:16.763Z,56.2
2018-04-16T09:41:16.795Z,55.1
2018-04-16T09:42:17.046Z,55.5
2018-04-16T09:43:16.302Z,55.4
2018-04-16T09:44:16.558Z,55.2
2018-04-16T09:45:16.822Z,54.6
2018-04-16T09:46:17.094Z,55.1
2018-04-16T09:47:16.386Z,54.2
2018-04-16T09:48:16.654Z,53.7
2018-04-16T09:49:16.927Z,53.5
2018-04-16T09:50:17.288Z,53.5
2018-04-16T09:51:17.228Z,53.1
2018-04-16T09:52:16.490Z,52.8
2018-04-16T09:53:16.755Z,53.1
2018-04-16T09:54:17.015Z,53.2
2018-04-16T09:55:16.279Z,52.4
2018-04-16T09:56:16.544Z,53.7
2018-04-16T09:57:16.803Z,53.2
2018-04-16T09:58:17.078Z,53.6
2018-04-16T09:59:16.386Z,53.1
2018-04-16T10:00:16.714Z,52.7
2018-04-16T10:01:16.747Z,51.9
2018-04-16T10:02:17.012Z,51.6
2018-04-16T10:03:16.267Z,52.0
2018-04-16T10:04:16.530Z,52.0
2018-04-16T10:05:16.793Z,52.0
2018-04-16T10:06:17.060Z,52.0
2018-04-16T10:07:16.355Z,52.0
2018-04-16T10:08:16.618Z,51.3
2018-04-16T10:09:16.885Z,51.5
2018-04-16T10:10:17.169Z,51.1
2018-04-16T10:11:17.204Z,51.4
2018-04-16T10:12:16.455Z,51.5
2018-04-16T10:13:16.711Z,51.2
2018-04-16T10:14:16.977Z,51.2
2018-04-16T10:15:17.247Z,51.2
2018-04-16T10:16:16.506Z,51.1
2018-04-16T10:17:16.784Z,50.6
2018-04-16T10:18:17.038Z,50.1
2018-04-16T10:19:16.311Z,50.7
2018-04-16T10:20:16.579Z,49.8
2018-04-16T10:21:16.657Z,48.6
2018-04-16T10:22:16.915Z,48.5
2018-04-16T10:23:17.174Z,48.1
2018-04-16T10:24:16.448Z,48.8
2018-04-16T10:25:16.712Z,49.5
2018-04-16T10:26:16.980Z,49.0
2018-04-16T10:27:17.239Z,48.6
2018-04-16T10:28:16.497Z,50.1
2018-04-16T10:29:16.759Z,50.5
2018-04-16T10:30:17.021Z,51.2
2018-04-16T10:31:17.071Z,51.4
2018-04-16T10:32:16.326Z,51.4
2018-04-16T10:33:16.586Z,51.5
2018-04-16T10:34:16.846Z,52.0
2018-04-16T10:35:17.114Z,52.6
2018-04-16T10:36:16.372Z,51.8
2018-04-16T10:37:16.637Z,51.9
2018-04-16T10:38:16.903Z,52.1
2018-04-16T10:39:17.164Z,52.0
2018-04-16T10:40:16.433Z,51.4
2018-04-16T10:41:16.485Z,51.4
2018-04-16T10:42:16.746Z,50.8
2018-04-16T10:43:17.012Z,50.0
2018-04-16T10:44:16.268Z,49.6
2018-04-16T10:45:16.543Z,49.1
2018-04-16T10:46:16.796Z,49.1
2018-04-16T10:47:17.059Z,49.1
2018-04-16T10:48:16.321Z,48.4
2018-04-16T10:49:16.580Z,48.3
2018-04-16T10:50:16.840Z,48.5
2018-04-16T10:51:16.892Z,48.8
2018-04-16T10:52:17.198Z,48.0
2018-04-16T10:53:16.468Z,47.5
2018-04-16T10:54:16.723Z,47.1
2018-04-16T10:55:16.985Z,47.1
2018-04-16T10:56:17.246Z,46.4
2018-04-16T10:57:16.513Z,47.4
2018-04-16T10:58:16.930Z,46.8
2018-04-16T10:59:17.186Z,46.4
2018-04-16T11:00:16.456Z,46.9
2018-04-16T11:01:16.501Z,47.7
2018-04-16T11:02:16.772Z,47.9
2018-04-16T11:03:17.041Z,48.5
2018-04-16T11:04:16.300Z,48.7
2018-04-16T11:05:16.561Z,48.9
2018-04-16T11:06:16.930Z,48.3
2018-04-16T11:07:17.255Z,49.3
2018-04-16T11:08:16.898Z,49.0
2018-04-16T11:09:17.215Z,49.8
2018-04-16T11:10:16.487Z,50.1
2018-04-16T11:11:16.523Z,50.0
2018-04-16T11:12:16.794Z,49.2
2018-04-16T11:13:17.059Z,48.9
2018-04-16T11:14:16.318Z,49.0
2018-04-16T11:15:16.582Z,49.4
2018-04-16T11:16:16.844Z,49.6
2018-04-16T11:17:17.110Z,49.5
2018-04-16T11:18:16.393Z,49.5
2018-04-16T11:19:16.667Z,49.4
2018-04-16T11:20:16.939Z,49.1
2018-04-16T11:21:16.975Z,48.7
2018-04-16T11:22:17.235Z,48.0
2018-04-16T11:23:16.503Z,47.6
2018-04-16T11:24:16.762Z,47.9
2018-04-16T11:25:17.022Z,46.9
2018-04-16T11:26:16.275Z,46.6
2018-04-16T11:27:16.539Z,46.7
2018-04-16T11:28:16.797Z,46.1
2018-04-16T11:29:17.263Z,45.7
2018-04-16T11:30:16.531Z,45.8
2018-04-16T11:31:16.592Z,46.4
2018-04-16T11:32:16.893Z,46.4
2018-04-16T11:33:17.155Z,45.6
2018-04-16T11:34:16.415Z,44.5
2018-04-16T11:35:16.682Z,44.0
2018-04-16T11:36:16.941Z,44.2
2018-04-16T11:37:17.206Z,44.9
2018-04-16T11:38:16.465Z,45.5
2018-04-16T11:39:16.731Z,44.4
2018-04-16T11:40:17.010Z,44.5
2018-04-16T11:41:17.045Z,44.7
2018-04-16T11:42:16.301Z,45.3
2018-04-16T11:43:16.565Z,45.3
2018-04-16T11:44:16.837Z,45.2
2018-04-16T11:45:17.106Z,45.2
2018-04-16T11:46:16.376Z,44.9
2018-04-16T11:47:16.646Z,44.0
2018-04-16T11:48:16.913Z,44.9
2018-04-16T11:49:17.225Z,44.4
2018-04-16T11:50:16.495Z,44.2
2018-04-16T11:51:16.518Z,42.9
2018-04-16T11:52:16.789Z,43.9
2018-04-16T11:53:17.050Z,44.4
2018-04-16T11:54:16.325Z,43.7
2018-04-16T11:55:16.590Z,44.0
2018-04-16T11:56:16.856Z,43.1
2018-04-16T11:57:17.117Z,42.7
2018-04-16T11:58:16.388Z,43.6
2018-04-16T11:59:16.649Z,43.4
2018-04-16T12:00:16.927Z,42.5
2018-04-16T12:01:16.975Z,42.9
2018-04-16T12:02:17.230Z,43.5
2018-04-16T12:03:16.491Z,43.9
2018-04-16T12:04:16.958Z,44.0
2018-04-16T12:05:16.293Z,43.5
2018-04-16T12:06:16.559Z,43.5
2018-04-16T12:07:16.821Z,43.0
2018-04-16T12:08:17.086Z,42.2
2018-04-16T12:09:16.349Z,41.8
2018-04-16T12:10:16.618Z,41.8
2018-04-16T12:11:16.684Z,41.7
2018-04-16T12:12:16.953Z,41.9
2018-04-16T12:13:17.212Z,41.8
2018-04-16T12:14:16.467Z,42.5
2018-04-16T12:15:16.735Z,43.8
2018-04-16T12:16:17.001Z,42.5
2018-04-16T12:17:16.263Z,43.1
2018-04-16T12:18:16.526Z,43.4
2018-04-16T12:19:16.783Z,43.6
2018-04-16T12:20:17.047Z,43.5
2018-04-16T12:21:17.098Z,43.0
2018-04-16T12:22:16.402Z,43.5
2018-04-16T12:23:16.670Z,43.6
2018-04-16T12:24:16.936Z,43.9
2018-04-16T12:25:17.229Z,45.3
2018-04-16T12:26:16.493Z,44.9
2018-04-16T12:27:16.761Z,45.0
2018-04-16T12:28:17.028Z,44.5
2018-04-16T12:29:16.288Z,44.3
2018-04-16T12:30:16.566Z,44.3
2018-04-16T12:31:16.616Z,44.8
2018-04-16T12:32:16.874Z,44.6
2018-04-16T12:33:17.137Z,45.5
2018-04-16T12:34:16.435Z,46.1
2018-04-16T12:35:16.797Z,46.6
2018-04-16T12:36:17.069Z,47.0
2018-04-16T12:37:16.334Z,46.8
2018-04-16T12:38:16.607Z,47.6
2018-04-16T12:39:16.929Z,47.5
2018-04-16T12:40:17.216Z,47.6
2018-04-16T12:41:17.241Z,48.2
2018-04-16T12:42:16.510Z,48.5
2018-04-16T12:43:16.774Z,48.6
2018-04-16T12:44:17.040Z,48.0
2018-04-16T12:45:16.301Z,47.9
2018-04-16T12:46:16.557Z,48.0
2018-04-16T12:47:16.828Z,47.5
2018-04-16T12:48:17.096Z,46.8
2018-04-16T12:49:16.352Z,47.0
2018-04-16T12:50:16.717Z,46.3
2018-04-16T12:51:16.670Z,46.5
2018-04-16T12:52:16.927Z,47.2
2018-04-16T12:53:17.189Z,47.0
2018-04-16T12:54:16.445Z,47.2
2018-04-16T12:55:16.727Z,47.0
2018-04-16T12:56:16.986Z,47.1
2018-04-16T12:57:17.248Z,47.5
2018-04-16T12:58:16.509Z,48.0
2018-04-16T12:59:16.761Z,48.5
2018-04-16T13:00:17.024Z,49.6
2018-04-16T13:01:17.072Z,51.6
2018-04-16T13:02:16.336Z,53.4
2018-04-16T13:03:16.584Z,53.6
2018-04-16T13:04:16.845Z,54.2
2018-04-16T13:05:17.103Z,55.1
2018-04-16T13:06:16.360Z,55.5
2018-04-16T13:07:16.620Z,55.1
2018-04-16T13:08:16.894Z,55.9
2018-04-16T13:09:17.477Z,55.4
2018-04-16T13:10:16.739Z,55.0
2018-04-16T13:11:16.784Z,54.8
2018-04-16T13:12:17.048Z,54.1
2018-04-16T13:13:16.306Z,53.6
2018-04-16T13:14:16.568Z,52.5
2018-04-16T13:15:16.838Z,52.5
2018-04-16T13:16:17.175Z,51.8
2018-04-16T13:17:16.443Z,51.5
2018-04-16T13:18:16.711Z,50.5